sensor_id;sensor_type;location;lat;lon;timestamp;P1;durP1;ratioP1;P2;durP2;ratioP2
55756;SDS011;41676;44.610;44.078;2022-10-16T00:04:44;9.77;;;7.63;;
55756;SDS011;41676;44.610;44.078;2022-10-16T00:09:45;8.35;;;7.47;;
55756;SDS011;41676;44.610;44.078;2022-10-16T00:14:46;11.30;;;8.38;;
55756;SDS011;41676;44.610;44.078;2022-10-16T00:19:47;10.13;;;8.43;;
55756;SDS011;41676;44.610;44.078;2022-10-16T00:24:48;13.48;;;9.25;;
55756;SDS011;41676;44.610;44.078;2022-10-16T00:29:52;14.07;;;10.02;;
55756;SDS011;41676;44.610;44.078;2022-10-16T00:34:53;11.30;;;10.07;;
55756;SDS011;41676;44.610;44.078;2022-10-16T00:39:56;12.33;;;9.77;;
55756;SDS011;41676;44.610;44.078;2022-10-16T00:44:57;13.15;;;11.63;;
55756;SDS011;41676;44.610;44.078;2022-10-16T00:50:00;15.98;;;13.35;;
55756;SDS011;41676;44.610;44.078;2022-10-16T00:55:08;16.52;;;13.80;;
55756;SDS011;41676;44.610;44.078;2022-10-16T01:00:10;21.00;;;15.32;;
55756;SDS011;41676;44.610;44.078;2022-10-16T01:05:13;19.85;;;16.27;;
55756;SDS011;41676;44.610;44.078;2022-10-16T01:20:48;25.33;;;19.83;;
55756;SDS011;41676;44.610;44.078;2022-10-16T01:31:15;27.15;;;22.13;;
55756;SDS011;41676;44.610;44.078;2022-10-16T01:36:21;27.60;;;22.80;;
55756;SDS011;41676;44.610;44.078;2022-10-16T01:41:34;25.17;;;22.48;;
55756;SDS011;41676;44.610;44.078;2022-10-16T01:46:39;25.63;;;22.63;;
55756;SDS011;41676;44.610;44.078;2022-10-16T01:51:42;26.80;;;22.77;;
55756;SDS011;41676;44.610;44.078;2022-10-16T01:56:47;23.95;;;20.23;;
55756;SDS011;41676;44.610;44.078;2022-10-16T02:01:52;22.67;;;19.77;;
55756;SDS011;41676;44.610;44.078;2022-10-16T02:06:58;21.67;;;19.23;;
55756;SDS011;41676;44.610;44.078;2022-10-16T02:12:00;22.15;;;19.08;;
55756;SDS011;41676;44.610;44.078;2022-10-16T02:17:18;19.92;;;17.83;;
55756;SDS011;41676;44.610;44.078;2022-10-16T02:23:02;22.83;;;18.40;;
55756;SDS011;41676;44.610;44.078;2022-10-16T02:28:22;21.15;;;17.10;;
55756;SDS011;41676;44.610;44.078;2022-10-16T02:33:18;20.20;;;17.20;;
55756;SDS011;41676;44.610;44.078;2022-10-16T02:38:22;19.02;;;15.30;;
55756;SDS011;41676;44.610;44.078;2022-10-16T02:43:25;17.23;;;14.90;;
55756;SDS011;41676;44.610;44.078;2022-10-16T02:48:26;17.17;;;14.15;;
55756;SDS011;41676;44.610;44.078;2022-10-16T02:53:27;23.65;;;14.80;;
55756;SDS011;41676;44.610;44.078;2022-10-16T02:58:27;15.88;;;13.57;;
55756;SDS011;41676;44.610;44.078;2022-10-16T03:03:28;14.65;;;12.68;;
55756;SDS011;41676;44.610;44.078;2022-10-16T03:08:29;12.70;;;10.77;;
55756;SDS011;41676;44.610;44.078;2022-10-16T03:13:30;15.45;;;11.75;;
55756;SDS011;41676;44.610;44.078;2022-10-16T03:18:31;15.18;;;11.35;;
55756;SDS011;41676;44.610;44.078;2022-10-16T03:23:31;12.85;;;10.70;;
55756;SDS011;41676;44.610;44.078;2022-10-16T03:28:32;13.40;;;10.13;;
55756;SDS011;41676;44.610;44.078;2022-10-16T03:33:33;14.77;;;11.27;;
55756;SDS011;41676;44.610;44.078;2022-10-16T03:38:34;26.60;;;10.82;;
55756;SDS011;41676;44.610;44.078;2022-10-16T03:43:34;15.55;;;10.25;;
55756;SDS011;41676;44.610;44.078;2022-10-16T03:48:35;15.95;;;10.02;;
55756;SDS011;41676;44.610;44.078;2022-10-16T03:53:37;18.17;;;10.52;;
55756;SDS011;41676;44.610;44.078;2022-10-16T03:58:37;13.82;;;9.18;;
55756;SDS011;41676;44.610;44.078;2022-10-16T04:03:38;15.48;;;8.60;;
55756;SDS011;41676;44.610;44.078;2022-10-16T04:08:39;11.75;;;8.93;;
55756;SDS011;41676;44.610;44.078;2022-10-16T04:13:43;14.75;;;9.07;;
55756;SDS011;41676;44.610;44.078;2022-10-16T04:18:43;15.48;;;8.73;;
55756;SDS011;41676;44.610;44.078;2022-10-16T04:23:44;21.45;;;8.82;;
55756;SDS011;41676;44.610;44.078;2022-10-16T04:28:45;15.90;;;8.30;;
55756;SDS011;41676;44.610;44.078;2022-10-16T04:33:46;17.20;;;8.25;;
55756;SDS011;41676;44.610;44.078;2022-10-16T04:38:46;11.43;;;7.72;;
55756;SDS011;41676;44.610;44.078;2022-10-16T04:43:47;10.55;;;7.70;;
55756;SDS011;41676;44.610;44.078;2022-10-16T04:48:48;12.68;;;8.07;;
55756;SDS011;41676;44.610;44.078;2022-10-16T04:53:49;10.38;;;7.68;;
55756;SDS011;41676;44.610;44.078;2022-10-16T04:58:49;12.95;;;7.15;;
55756;SDS011;41676;44.610;44.078;2022-10-16T05:03:50;12.88;;;7.20;;
55756;SDS011;41676;44.610;44.078;2022-10-16T05:08:51;10.05;;;7.97;;
55756;SDS011;41676;44.610;44.078;2022-10-16T05:13:52;10.95;;;8.40;;
55756;SDS011;41676;44.610;44.078;2022-10-16T05:18:52;22.55;;;7.80;;
55756;SDS011;41676;44.610;44.078;2022-10-16T05:23:53;15.65;;;7.60;;
55756;SDS011;41676;44.610;44.078;2022-10-16T05:28:55;43.88;;;38.75;;
55756;SDS011;41676;44.610;44.078;2022-10-16T05:33:59;44.45;;;33.92;;
55756;SDS011;41676;44.610;44.078;2022-10-16T05:39:00;22.13;;;11.57;;
55756;SDS011;41676;44.610;44.078;2022-10-16T05:44:04;20.88;;;17.33;;
55756;SDS011;41676;44.610;44.078;2022-10-16T05:49:06;18.52;;;9.82;;
55756;SDS011;41676;44.610;44.078;2022-10-16T05:54:06;22.23;;;8.40;;
55756;SDS011;41676;44.610;44.078;2022-10-16T05:59:07;13.40;;;8.25;;
55756;SDS011;41676;44.610;44.078;2022-10-16T06:04:08;14.63;;;5.85;;
55756;SDS011;41676;44.610;44.078;2022-10-16T06:09:09;26.35;;;6.93;;
55756;SDS011;41676;44.610;44.078;2022-10-16T06:14:10;13.10;;;5.68;;
55756;SDS011;41676;44.610;44.078;2022-10-16T06:19:11;8.13;;;5.53;;
55756;SDS011;41676;44.610;44.078;2022-10-16T06:24:12;9.38;;;5.80;;
55756;SDS011;41676;44.610;44.078;2022-10-16T06:29:13;14.48;;;6.57;;
55756;SDS011;41676;44.610;44.078;2022-10-16T06:34:13;12.15;;;5.47;;
55756;SDS011;41676;44.610;44.078;2022-10-16T06:39:14;9.05;;;5.60;;
55756;SDS011;41676;44.610;44.078;2022-10-16T06:44:15;7.07;;;5.45;;
55756;SDS011;41676;44.610;44.078;2022-10-16T06:49:16;7.85;;;5.22;;
55756;SDS011;41676;44.610;44.078;2022-10-16T06:54:21;8.73;;;5.75;;
55756;SDS011;41676;44.610;44.078;2022-10-16T06:59:22;8.60;;;5.30;;
55756;SDS011;41676;44.610;44.078;2022-10-16T07:04:23;7.30;;;5.63;;
55756;SDS011;41676;44.610;44.078;2022-10-16T07:09:24;8.77;;;5.50;;
55756;SDS011;41676;44.610;44.078;2022-10-16T07:14:24;8.48;;;5.07;;
55756;SDS011;41676;44.610;44.078;2022-10-16T07:19:25;8.02;;;5.18;;
55756;SDS011;41676;44.610;44.078;2022-10-16T07:24:26;7.68;;;5.50;;
55756;SDS011;41676;44.610;44.078;2022-10-16T07:29:27;9.38;;;5.20;;
55756;SDS011;41676;44.610;44.078;2022-10-16T07:34:28;6.50;;;4.97;;
55756;SDS011;41676;44.610;44.078;2022-10-16T07:39:28;12.13;;;5.30;;
55756;SDS011;41676;44.610;44.078;2022-10-16T07:44:29;8.02;;;4.60;;
55756;SDS011;41676;44.610;44.078;2022-10-16T07:49:30;13.23;;;7.43;;
55756;SDS011;41676;44.610;44.078;2022-10-16T07:54:30;8.52;;;5.18;;
55756;SDS011;41676;44.610;44.078;2022-10-16T07:59:31;12.40;;;5.53;;
55756;SDS011;41676;44.610;44.078;2022-10-16T08:04:32;6.85;;;5.03;;
55756;SDS011;41676;44.610;44.078;2022-10-16T08:09:33;17.52;;;6.68;;
55756;SDS011;41676;44.610;44.078;2022-10-16T08:14:34;8.40;;;5.60;;
55756;SDS011;41676;44.610;44.078;2022-10-16T08:19:34;12.30;;;9.35;;
55756;SDS011;41676;44.610;44.078;2022-10-16T08:24:35;12.82;;;10.82;;
55756;SDS011;41676;44.610;44.078;2022-10-16T08:29:37;7.80;;;6.20;;
55756;SDS011;41676;44.610;44.078;2022-10-16T08:34:38;6.95;;;5.90;;
55756;SDS011;41676;44.610;44.078;2022-10-16T08:39:39;9.27;;;7.10;;
55756;SDS011;41676;44.610;44.078;2022-10-16T08:49:57;9.57;;;6.75;;
55756;SDS011;41676;44.610;44.078;2022-10-16T08:54:59;9.65;;;6.90;;
55756;SDS011;41676;44.610;44.078;2022-10-16T09:00:05;11.07;;;6.10;;
55756;SDS011;41676;44.610;44.078;2022-10-16T09:10:26;8.93;;;6.22;;
55756;SDS011;41676;44.610;44.078;2022-10-16T09:20:53;12.70;;;6.10;;
55756;SDS011;41676;44.610;44.078;2022-10-16T09:25:56;9.45;;;6.25;;
55756;SDS011;41676;44.610;44.078;2022-10-16T09:30:58;16.98;;;6.38;;
55756;SDS011;41676;44.610;44.078;2022-10-16T09:35:59;12.18;;;6.35;;
55756;SDS011;41676;44.610;44.078;2022-10-16T09:41:13;11.68;;;6.10;;
55756;SDS011;41676;44.610;44.078;2022-10-16T09:51:45;10.73;;;5.32;;
55756;SDS011;41676;44.610;44.078;2022-10-16T09:56:46;7.05;;;5.10;;
55756;SDS011;41676;44.610;44.078;2022-10-16T10:01:52;11.80;;;5.25;;
55756;SDS011;41676;44.610;44.078;2022-10-16T10:06:55;8.90;;;4.60;;
55756;SDS011;41676;44.610;44.078;2022-10-16T10:11:58;8.98;;;4.57;;
55756;SDS011;41676;44.610;44.078;2022-10-16T10:17:13;8.15;;;5.20;;
55756;SDS011;41676;44.610;44.078;2022-10-16T10:22:25;9.95;;;4.13;;
55756;SDS011;41676;44.610;44.078;2022-10-16T10:33:09;10.65;;;4.28;;
55756;SDS011;41676;44.610;44.078;2022-10-16T10:43:37;13.32;;;4.72;;
55756;SDS011;41676;44.610;44.078;2022-10-16T10:59:37;12.48;;;5.93;;
55756;SDS011;41676;44.610;44.078;2022-10-16T11:04:55;26.58;;;14.02;;
55756;SDS011;41676;44.610;44.078;2022-10-16T11:10:54;12.38;;;6.28;;
55756;SDS011;41676;44.610;44.078;2022-10-16T11:15:43;13.38;;;5.20;;
55756;SDS011;41676;44.610;44.078;2022-10-16T11:25:59;13.85;;;4.95;;
55756;SDS011;41676;44.610;44.078;2022-10-16T11:36:45;16.58;;;6.93;;
55756;SDS011;41676;44.610;44.078;2022-10-16T11:47:23;12.80;;;3.70;;
55756;SDS011;41676;44.610;44.078;2022-10-16T11:52:35;23.33;;;7.30;;
55756;SDS011;41676;44.610;44.078;2022-10-16T11:57:44;12.38;;;3.83;;
55756;SDS011;41676;44.610;44.078;2022-10-16T12:02:50;22.23;;;4.97;;
55756;SDS011;41676;44.610;44.078;2022-10-16T12:08:10;12.63;;;5.07;;
55756;SDS011;41676;44.610;44.078;2022-10-16T12:18:35;21.52;;;8.55;;
55756;SDS011;41676;44.610;44.078;2022-10-16T12:23:37;16.80;;;7.43;;
55756;SDS011;41676;44.610;44.078;2022-10-16T12:34:43;14.18;;;3.05;;
55756;SDS011;41676;44.610;44.078;2022-10-16T12:39:45;14.88;;;3.70;;
55756;SDS011;41676;44.610;44.078;2022-10-16T12:44:47;18.42;;;3.40;;
55756;SDS011;41676;44.610;44.078;2022-10-16T12:49:49;13.63;;;3.28;;
55756;SDS011;41676;44.610;44.078;2022-10-16T12:54:52;15.95;;;3.20;;
55756;SDS011;41676;44.610;44.078;2022-10-16T13:10:36;13.75;;;2.67;;
55756;SDS011;41676;44.610;44.078;2022-10-16T13:21:13;20.55;;;5.60;;
55756;SDS011;41676;44.610;44.078;2022-10-16T13:31:37;11.07;;;3.15;;
55756;SDS011;41676;44.610;44.078;2022-10-16T13:36:47;17.38;;;2.67;;
55756;SDS011;41676;44.610;44.078;2022-10-16T13:47:13;24.35;;;3.78;;
55756;SDS011;41676;44.610;44.078;2022-10-16T13:52:20;22.88;;;3.25;;
55756;SDS011;41676;44.610;44.078;2022-10-16T13:57:22;15.77;;;4.78;;
55756;SDS011;41676;44.610;44.078;2022-10-16T14:02:35;29.02;;;10.38;;
55756;SDS011;41676;44.610;44.078;2022-10-16T14:07:39;14.57;;;3.97;;
55756;SDS011;41676;44.610;44.078;2022-10-16T14:12:40;12.40;;;3.60;;
55756;SDS011;41676;44.610;44.078;2022-10-16T14:17:42;8.25;;;3.95;;
55756;SDS011;41676;44.610;44.078;2022-10-16T14:22:46;7.25;;;3.13;;
55756;SDS011;41676;44.610;44.078;2022-10-16T14:27:57;11.57;;;3.22;;
55756;SDS011;41676;44.610;44.078;2022-10-16T14:33:03;13.20;;;3.38;;
55756;SDS011;41676;44.610;44.078;2022-10-16T14:38:20;17.48;;;3.97;;
55756;SDS011;41676;44.610;44.078;2022-10-16T14:43:22;13.32;;;3.80;;
55756;SDS011;41676;44.610;44.078;2022-10-16T14:48:30;11.63;;;3.75;;
55756;SDS011;41676;44.610;44.078;2022-10-16T14:53:31;19.92;;;3.40;;
55756;SDS011;41676;44.610;44.078;2022-10-16T14:58:32;15.52;;;3.28;;
55756;SDS011;41676;44.610;44.078;2022-10-16T15:03:33;13.80;;;2.50;;
55756;SDS011;41676;44.610;44.078;2022-10-16T15:08:34;10.07;;;3.00;;
55756;SDS011;41676;44.610;44.078;2022-10-16T15:13:34;16.45;;;3.92;;
55756;SDS011;41676;44.610;44.078;2022-10-16T15:18:35;12.88;;;3.60;;
55756;SDS011;41676;44.610;44.078;2022-10-16T15:23:36;11.70;;;3.03;;
55756;SDS011;41676;44.610;44.078;2022-10-16T15:28:38;12.13;;;3.47;;
55756;SDS011;41676;44.610;44.078;2022-10-16T15:33:39;14.38;;;3.70;;
55756;SDS011;41676;44.610;44.078;2022-10-16T15:38:40;9.88;;;3.30;;
55756;SDS011;41676;44.610;44.078;2022-10-16T15:43:41;9.27;;;3.00;;
55756;SDS011;41676;44.610;44.078;2022-10-16T15:48:41;8.52;;;3.42;;
55756;SDS011;41676;44.610;44.078;2022-10-16T15:53:43;8.32;;;3.92;;
55756;SDS011;41676;44.610;44.078;2022-10-16T15:58:46;10.52;;;3.10;;
55756;SDS011;41676;44.610;44.078;2022-10-16T16:03:47;14.73;;;3.97;;
55756;SDS011;41676;44.610;44.078;2022-10-16T16:08:47;8.65;;;3.65;;
55756;SDS011;41676;44.610;44.078;2022-10-16T16:13:48;11.35;;;4.25;;
55756;SDS011;41676;44.610;44.078;2022-10-16T16:18:52;9.38;;;3.60;;
55756;SDS011;41676;44.610;44.078;2022-10-16T16:23:53;17.10;;;4.10;;
55756;SDS011;41676;44.610;44.078;2022-10-16T16:28:54;15.40;;;4.10;;
55756;SDS011;41676;44.610;44.078;2022-10-16T16:33:57;27.15;;;4.03;;
55756;SDS011;41676;44.610;44.078;2022-10-16T16:38:58;9.93;;;3.70;;
55756;SDS011;41676;44.610;44.078;2022-10-16T16:44:03;11.23;;;4.18;;
55756;SDS011;41676;44.610;44.078;2022-10-16T16:49:09;10.13;;;4.65;;
55756;SDS011;41676;44.610;44.078;2022-10-16T16:54:12;10.80;;;4.20;;
55756;SDS011;41676;44.610;44.078;2022-10-16T16:59:14;9.73;;;4.00;;
55756;SDS011;41676;44.610;44.078;2022-10-16T17:04:18;8.18;;;3.67;;
55756;SDS011;41676;44.610;44.078;2022-10-16T17:09:19;9.30;;;4.07;;
55756;SDS011;41676;44.610;44.078;2022-10-16T17:14:20;12.88;;;4.57;;
55756;SDS011;41676;44.610;44.078;2022-10-16T17:19:21;11.65;;;4.32;;
55756;SDS011;41676;44.610;44.078;2022-10-16T17:24:22;9.98;;;4.32;;
55756;SDS011;41676;44.610;44.078;2022-10-16T17:29:22;9.20;;;3.63;;
55756;SDS011;41676;44.610;44.078;2022-10-16T17:34:23;11.35;;;4.10;;
55756;SDS011;41676;44.610;44.078;2022-10-16T17:39:24;11.15;;;4.13;;
55756;SDS011;41676;44.610;44.078;2022-10-16T17:44:25;9.45;;;3.78;;
55756;SDS011;41676;44.610;44.078;2022-10-16T17:49:26;10.45;;;3.90;;
55756;SDS011;41676;44.610;44.078;2022-10-16T17:54:26;6.43;;;4.05;;
55756;SDS011;41676;44.610;44.078;2022-10-16T17:59:27;10.50;;;4.18;;
55756;SDS011;41676;44.610;44.078;2022-10-16T18:04:28;8.18;;;3.80;;
55756;SDS011;41676;44.610;44.078;2022-10-16T18:09:29;9.50;;;4.22;;
55756;SDS011;41676;44.610;44.078;2022-10-16T18:14:30;12.18;;;3.78;;
55756;SDS011;41676;44.610;44.078;2022-10-16T18:19:32;15.20;;;4.00;;
55756;SDS011;41676;44.610;44.078;2022-10-16T18:24:32;8.82;;;3.63;;
55756;SDS011;41676;44.610;44.078;2022-10-16T18:29:34;7.78;;;3.10;;
55756;SDS011;41676;44.610;44.078;2022-10-16T18:34:36;10.40;;;3.33;;
55756;SDS011;41676;44.610;44.078;2022-10-16T18:39:37;8.05;;;2.90;;
55756;SDS011;41676;44.610;44.078;2022-10-16T18:44:38;7.85;;;2.78;;
55756;SDS011;41676;44.610;44.078;2022-10-16T18:49:39;7.38;;;2.72;;
55756;SDS011;41676;44.610;44.078;2022-10-16T18:54:39;5.18;;;2.53;;
55756;SDS011;41676;44.610;44.078;2022-10-16T18:59:40;6.75;;;2.60;;
55756;SDS011;41676;44.610;44.078;2022-10-16T19:04:41;5.15;;;2.58;;
55756;SDS011;41676;44.610;44.078;2022-10-16T19:09:42;6.20;;;2.28;;
55756;SDS011;41676;44.610;44.078;2022-10-16T19:14:42;8.48;;;2.50;;
55756;SDS011;41676;44.610;44.078;2022-10-16T19:19:43;5.97;;;2.25;;
55756;SDS011;41676;44.610;44.078;2022-10-16T19:24:44;4.88;;;1.98;;
55756;SDS011;41676;44.610;44.078;2022-10-16T19:29:45;6.60;;;2.22;;
55756;SDS011;41676;44.610;44.078;2022-10-16T19:34:48;3.92;;;2.22;;
55756;SDS011;41676;44.610;44.078;2022-10-16T19:39:50;5.88;;;2.20;;
55756;SDS011;41676;44.610;44.078;2022-10-16T19:44:51;4.80;;;1.95;;
55756;SDS011;41676;44.610;44.078;2022-10-16T19:49:51;4.53;;;1.90;;
55756;SDS011;41676;44.610;44.078;2022-10-16T19:54:53;6.40;;;2.17;;
55756;SDS011;41676;44.610;44.078;2022-10-16T19:59:56;6.35;;;1.95;;
55756;SDS011;41676;44.610;44.078;2022-10-16T20:04:57;7.70;;;1.92;;
55756;SDS011;41676;44.610;44.078;2022-10-16T20:09:58;6.35;;;1.95;;
55756;SDS011;41676;44.610;44.078;2022-10-16T20:14:59;5.40;;;2.17;;
55756;SDS011;41676;44.610;44.078;2022-10-16T20:19:59;6.75;;;2.20;;
55756;SDS011;41676;44.610;44.078;2022-10-16T20:25:00;8.50;;;2.38;;
55756;SDS011;41676;44.610;44.078;2022-10-16T20:30:01;6.80;;;1.95;;
55756;SDS011;41676;44.610;44.078;2022-10-16T20:35:02;5.03;;;2.13;;
55756;SDS011;41676;44.610;44.078;2022-10-16T20:40:03;5.28;;;1.80;;
55756;SDS011;41676;44.610;44.078;2022-10-16T20:45:05;7.85;;;1.70;;
55756;SDS011;41676;44.610;44.078;2022-10-16T20:50:06;5.70;;;1.73;;
55756;SDS011;41676;44.610;44.078;2022-10-16T20:55:07;5.03;;;1.88;;
55756;SDS011;41676;44.610;44.078;2022-10-16T21:00:09;13.63;;;2.08;;
55756;SDS011;41676;44.610;44.078;2022-10-16T21:05:11;4.07;;;1.80;;
55756;SDS011;41676;44.610;44.078;2022-10-16T21:10:11;4.10;;;1.50;;
55756;SDS011;41676;44.610;44.078;2022-10-16T21:15:12;3.35;;;1.70;;
55756;SDS011;41676;44.610;44.078;2022-10-16T21:20:13;5.18;;;1.65;;
55756;SDS011;41676;44.610;44.078;2022-10-16T21:25:14;6.18;;;1.65;;
55756;SDS011;41676;44.610;44.078;2022-10-16T21:30:15;5.15;;;1.52;;
55756;SDS011;41676;44.610;44.078;2022-10-16T21:35:15;3.47;;;1.27;;
55756;SDS011;41676;44.610;44.078;2022-10-16T21:40:17;3.75;;;1.42;;
55756;SDS011;41676;44.610;44.078;2022-10-16T21:45:17;4.80;;;1.75;;
55756;SDS011;41676;44.610;44.078;2022-10-16T21:50:18;5.13;;;1.65;;
55756;SDS011;41676;44.610;44.078;2022-10-16T21:55:19;3.17;;;1.30;;
55756;SDS011;41676;44.610;44.078;2022-10-16T22:00:20;4.13;;;1.17;;
55756;SDS011;41676;44.610;44.078;2022-10-16T22:05:20;6.03;;;1.35;;
55756;SDS011;41676;44.610;44.078;2022-10-16T22:10:21;4.70;;;1.50;;
55756;SDS011;41676;44.610;44.078;2022-10-16T22:15:22;2.60;;;1.20;;
55756;SDS011;41676;44.610;44.078;2022-10-16T22:20:23;6.63;;;1.60;;
55756;SDS011;41676;44.610;44.078;2022-10-16T22:25:23;5.25;;;1.30;;
55756;SDS011;41676;44.610;44.078;2022-10-16T22:30:24;5.70;;;1.30;;
55756;SDS011;41676;44.610;44.078;2022-10-16T22:35:25;3.30;;;1.40;;
55756;SDS011;41676;44.610;44.078;2022-10-16T22:40:26;4.13;;;1.25;;
55756;SDS011;41676;44.610;44.078;2022-10-16T22:45:27;7.70;;;1.20;;
55756;SDS011;41676;44.610;44.078;2022-10-16T22:50:27;7.03;;;1.55;;
55756;SDS011;41676;44.610;44.078;2022-10-16T22:55:28;3.90;;;1.25;;
55756;SDS011;41676;44.610;44.078;2022-10-16T23:00:30;5.00;;;1.70;;
55756;SDS011;41676;44.610;44.078;2022-10-16T23:05:31;2.67;;;1.30;;
55756;SDS011;41676;44.610;44.078;2022-10-16T23:10:32;3.60;;;1.40;;
55756;SDS011;41676;44.610;44.078;2022-10-16T23:15:33;8.70;;;1.65;;
55756;SDS011;41676;44.610;44.078;2022-10-16T23:20:38;3.67;;;1.50;;
55756;SDS011;41676;44.610;44.078;2022-10-16T23:25:43;4.78;;;1.40;;
55756;SDS011;41676;44.610;44.078;2022-10-16T23:30:46;2.53;;;1.38;;
55756;SDS011;41676;44.610;44.078;2022-10-16T23:35:46;3.10;;;1.30;;
55756;SDS011;41676;44.610;44.078;2022-10-16T23:40:47;3.42;;;1.23;;
55756;SDS011;41676;44.610;44.078;2022-10-16T23:45:48;4.28;;;1.50;;
55756;SDS011;41676;44.610;44.078;2022-10-16T23:50:49;3.85;;;1.40;;
55756;SDS011;41676;44.610;44.078;2022-10-16T23:55:50;2.92;;;1.30;;
